This is the latest recevied weather packets stored in our database for station/object W1ERB-13. If no packets are shown the sender has not sent any weather packets the latest 10 day(s).
| Time | Temp. | Humidity | Pressure | Rain* | Wind** | Luminosity | Snow |
|---|---|---|---|---|---|---|---|
| 1777071724 | 13.89° C | 43% | 1010.1 hPa | 0 mm | - | 23 W/m² | - |
| 1777071421 | 14.44° C | 41% | 1010.2 hPa | 0 mm | - | 24 W/m² | - |
| 1777071115 | 15.56° C | 31% | 1010.1 hPa | 0 mm | - | 27 W/m² | - |
| 1777070811 | 15.56° C | 27% | 1010 hPa | 0 mm | - | 29 W/m² | - |
| 1777070510 | 15.56° C | 27% | 1009.7 hPa | 0 mm | - | 32 W/m² | - |
| 1777070208 | 15.56° C | 27% | 1009.9 hPa | 0 mm | - | 30 W/m² | - |
| 1777069903 | 15.56° C | 28% | 1009.8 hPa | 0 mm | - | 32 W/m² | - |
| 1777069603 | 15.56° C | 27% | 1009.8 hPa | 0 mm | - | 34 W/m² | - |
| 1777069298 | 15.56° C | 26% | 1009.8 hPa | 0 mm | - | 37 W/m² | - |
| 1777068995 | 15.56° C | 28% | 1009.7 hPa | 0 mm | - | 39 W/m² | - |
| 1777068692 | 15.56° C | 26% | 1009.8 hPa | 0 mm | - | 42 W/m² | - |
| 1777068386 | 15.56° C | 26% | 1009.5 hPa | 0 mm | - | 56 W/m² | - |
| 1777068081 | 15.56° C | 27% | 1009.6 hPa | 0 mm | - | 42 W/m² | - |
| 1777067781 | 15.56° C | 27% | 1009.7 hPa | 0 mm | - | 41 W/m² | - |
| 1777067480 | 15.56° C | 27% | 1009.5 hPa | 0 mm | - | 43 W/m² | - |
| 1777067178 | 15.56° C | 27% | 1009.3 hPa | 0 mm | - | 47 W/m² | - |
| 1777066875 | 16.11° C | 27% | 1009.5 hPa | 0 mm | - | 69 W/m² | - |
| 1777066569 | 15.56° C | 26% | 1009.4 hPa | 0 mm | - | 60 W/m² | - |
| 1777066265 | 16.11° C | 26% | 1009.5 hPa | 0 mm | - | 69 W/m² | - |
| 1777065965 | 16.11° C | 27% | 1009.4 hPa | 0 mm | - | 65 W/m² | - |
| 1777065661 | 16.67° C | 27% | 1009.4 hPa | 0 mm | - | 88 W/m² | - |
| 1777065360 | 16.11° C | 28% | 1009.3 hPa | 0 mm | - | 154 W/m² | - |
| 1777065056 | 16.11° C | 27% | 1009.2 hPa | 0 mm | - | 147 W/m² | - |
| 1777064753 | 16.67° C | 26% | 1009 hPa | 0 mm | - | 186 W/m² | - |
| 1777064450 | 17.22° C | 25% | 1009 hPa | 0 mm | - | 268 W/m² | - |
* Rain latest hour (hover to see other rain measurements)
** Current wind speed in m/s (hover to see current wind gust speed)